sensor_id;sensor_type;location;lat;lon;timestamp;P1;durP1;ratioP1;P2;durP2;ratioP2
568;SDS011;269;48.884;9.192;2023-07-29T00:02:01;7.00;;;6.50;;
568;SDS011;269;48.884;9.192;2023-07-29T00:04:27;6.90;;;6.40;;
568;SDS011;269;48.884;9.192;2023-07-29T00:06:54;8.47;;;7.60;;
568;SDS011;269;48.884;9.192;2023-07-29T00:09:21;7.40;;;6.70;;
568;SDS011;269;48.884;9.192;2023-07-29T00:11:49;6.27;;;5.67;;
568;SDS011;269;48.884;9.192;2023-07-29T00:14:16;7.30;;;6.70;;
568;SDS011;269;48.884;9.192;2023-07-29T00:16:43;6.33;;;5.87;;
568;SDS011;269;48.884;9.192;2023-07-29T00:19:10;7.47;;;6.83;;
568;SDS011;269;48.884;9.192;2023-07-29T00:21:36;7.00;;;6.20;;
568;SDS011;269;48.884;9.192;2023-07-29T00:24:04;6.27;;;5.77;;
568;SDS011;269;48.884;9.192;2023-07-29T00:26:30;6.50;;;6.00;;
568;SDS011;269;48.884;9.192;2023-07-29T00:28:58;5.93;;;5.43;;
568;SDS011;269;48.884;9.192;2023-07-29T00:31:25;5.80;;;5.40;;
568;SDS011;269;48.884;9.192;2023-07-29T00:33:52;6.63;;;6.03;;
568;SDS011;269;48.884;9.192;2023-07-29T00:36:19;7.13;;;6.53;;
568;SDS011;269;48.884;9.192;2023-07-29T00:38:46;8.13;;;5.80;;
568;SDS011;269;48.884;9.192;2023-07-29T00:41:13;6.60;;;6.10;;
568;SDS011;269;48.884;9.192;2023-07-29T00:43:39;7.40;;;6.70;;
568;SDS011;269;48.884;9.192;2023-07-29T00:46:08;5.87;;;5.37;;
568;SDS011;269;48.884;9.192;2023-07-29T00:48:35;6.00;;;5.27;;
568;SDS011;269;48.884;9.192;2023-07-29T00:51:02;6.23;;;5.80;;
568;SDS011;269;48.884;9.192;2023-07-29T00:53:29;6.80;;;6.20;;
568;SDS011;269;48.884;9.192;2023-07-29T00:55:55;7.90;;;7.10;;
568;SDS011;269;48.884;9.192;2023-07-29T00:58:22;6.83;;;6.23;;
568;SDS011;269;48.884;9.192;2023-07-29T01:00:49;6.60;;;6.07;;
568;SDS011;269;48.884;9.192;2023-07-29T01:03:18;7.17;;;6.10;;
568;SDS011;269;48.884;9.192;2023-07-29T01:05:46;6.10;;;5.70;;
568;SDS011;269;48.884;9.192;2023-07-29T01:08:20;6.50;;;5.20;;
568;SDS011;269;48.884;9.192;2023-07-29T01:10:51;6.13;;;5.60;;
568;SDS011;269;48.884;9.192;2023-07-29T01:16:08;6.67;;;6.13;;
568;SDS011;269;48.884;9.192;2023-07-29T01:18:38;15.43;;;5.70;;
568;SDS011;269;48.884;9.192;2023-07-29T01:21:07;7.20;;;6.50;;
568;SDS011;269;48.884;9.192;2023-07-29T01:23:36;6.03;;;5.53;;
568;SDS011;269;48.884;9.192;2023-07-29T01:26:03;5.70;;;5.30;;
568;SDS011;269;48.884;9.192;2023-07-29T01:28:30;7.47;;;6.77;;
568;SDS011;269;48.884;9.192;2023-07-29T01:30:57;6.70;;;6.00;;
568;SDS011;269;48.884;9.192;2023-07-29T01:33:30;5.53;;;5.13;;
568;SDS011;269;48.884;9.192;2023-07-29T01:36:01;6.37;;;5.87;;
568;SDS011;269;48.884;9.192;2023-07-29T01:38:33;5.60;;;5.20;;
568;SDS011;269;48.884;9.192;2023-07-29T01:41:04;6.10;;;5.67;;
568;SDS011;269;48.884;9.192;2023-07-29T01:43:34;5.97;;;5.50;;
568;SDS011;269;48.884;9.192;2023-07-29T01:46:07;6.33;;;5.73;;
568;SDS011;269;48.884;9.192;2023-07-29T01:48:34;5.20;;;4.80;;
568;SDS011;269;48.884;9.192;2023-07-29T01:51:00;6.40;;;5.80;;
568;SDS011;269;48.884;9.192;2023-07-29T01:53:27;5.57;;;5.17;;
568;SDS011;269;48.884;9.192;2023-07-29T01:55:55;5.00;;;4.53;;
568;SDS011;269;48.884;9.192;2023-07-29T01:58:22;5.30;;;4.80;;
568;SDS011;269;48.884;9.192;2023-07-29T02:00:49;4.40;;;4.10;;
568;SDS011;269;48.884;9.192;2023-07-29T02:03:16;4.27;;;3.97;;
568;SDS011;269;48.884;9.192;2023-07-29T02:05:43;4.13;;;3.83;;
568;SDS011;269;48.884;9.192;2023-07-29T02:08:10;5.03;;;4.73;;
568;SDS011;269;48.884;9.192;2023-07-29T02:10:37;4.50;;;4.10;;
568;SDS011;269;48.884;9.192;2023-07-29T02:13:05;5.70;;;5.20;;
568;SDS011;269;48.884;9.192;2023-07-29T02:15:32;5.70;;;4.00;;
568;SDS011;269;48.884;9.192;2023-07-29T02:17:59;4.10;;;3.80;;
568;SDS011;269;48.884;9.192;2023-07-29T02:20:27;5.43;;;4.97;;
568;SDS011;269;48.884;9.192;2023-07-29T02:22:53;4.67;;;4.27;;
568;SDS011;269;48.884;9.192;2023-07-29T02:25:20;4.70;;;4.40;;
568;SDS011;269;48.884;9.192;2023-07-29T02:27:47;4.33;;;4.00;;
568;SDS011;269;48.884;9.192;2023-07-29T02:30:16;4.50;;;4.17;;
568;SDS011;269;48.884;9.192;2023-07-29T02:32:43;4.80;;;4.40;;
568;SDS011;269;48.884;9.192;2023-07-29T02:35:09;4.97;;;4.57;;
568;SDS011;269;48.884;9.192;2023-07-29T02:37:36;5.10;;;4.60;;
568;SDS011;269;48.884;9.192;2023-07-29T02:40:03;4.90;;;4.50;;
568;SDS011;269;48.884;9.192;2023-07-29T02:42:31;5.40;;;5.00;;
568;SDS011;269;48.884;9.192;2023-07-29T02:44:58;5.03;;;4.63;;
568;SDS011;269;48.884;9.192;2023-07-29T02:47:26;4.10;;;3.80;;
568;SDS011;269;48.884;9.192;2023-07-29T02:49:53;4.80;;;4.40;;
568;SDS011;269;48.884;9.192;2023-07-29T02:52:19;4.10;;;3.80;;
568;SDS011;269;48.884;9.192;2023-07-29T02:54:46;3.73;;;3.43;;
568;SDS011;269;48.884;9.192;2023-07-29T02:57:13;5.70;;;4.17;;
568;SDS011;269;48.884;9.192;2023-07-29T02:59:40;4.30;;;4.00;;
568;SDS011;269;48.884;9.192;2023-07-29T03:02:07;4.80;;;4.40;;
568;SDS011;269;48.884;9.192;2023-07-29T03:04:35;5.67;;;4.30;;
568;SDS011;269;48.884;9.192;2023-07-29T03:07:03;5.03;;;4.40;;
568;SDS011;269;48.884;9.192;2023-07-29T03:09:30;4.27;;;3.97;;
568;SDS011;269;48.884;9.192;2023-07-29T03:11:58;4.47;;;3.40;;
568;SDS011;269;48.884;9.192;2023-07-29T03:14:25;3.50;;;3.30;;
568;SDS011;269;48.884;9.192;2023-07-29T03:16:52;4.50;;;3.80;;
568;SDS011;269;48.884;9.192;2023-07-29T03:19:18;4.33;;;3.93;;
568;SDS011;269;48.884;9.192;2023-07-29T03:21:47;3.90;;;3.60;;
568;SDS011;269;48.884;9.192;2023-07-29T03:24:14;4.60;;;4.27;;
568;SDS011;269;48.884;9.192;2023-07-29T03:26:40;5.00;;;4.60;;
568;SDS011;269;48.884;9.192;2023-07-29T03:29:07;5.30;;;4.77;;
568;SDS011;269;48.884;9.192;2023-07-29T03:31:34;4.63;;;4.10;;
568;SDS011;269;48.884;9.192;2023-07-29T03:34:01;4.10;;;3.80;;
568;SDS011;269;48.884;9.192;2023-07-29T03:36:27;4.10;;;3.80;;
568;SDS011;269;48.884;9.192;2023-07-29T03:38:56;4.17;;;3.87;;
568;SDS011;269;48.884;9.192;2023-07-29T03:41:23;4.77;;;4.10;;
568;SDS011;269;48.884;9.192;2023-07-29T03:43:50;4.80;;;4.50;;
568;SDS011;269;48.884;9.192;2023-07-29T03:46:17;4.13;;;3.80;;
568;SDS011;269;48.884;9.192;2023-07-29T03:48:46;4.60;;;4.20;;
568;SDS011;269;48.884;9.192;2023-07-29T03:51:13;5.10;;;4.67;;
568;SDS011;269;48.884;9.192;2023-07-29T03:53:40;4.20;;;3.90;;
568;SDS011;269;48.884;9.192;2023-07-29T03:56:08;4.93;;;4.20;;
568;SDS011;269;48.884;9.192;2023-07-29T03:58:35;5.83;;;4.63;;
568;SDS011;269;48.884;9.192;2023-07-29T04:01:02;4.80;;;3.80;;
568;SDS011;269;48.884;9.192;2023-07-29T04:03:29;4.47;;;4.13;;
568;SDS011;269;48.884;9.192;2023-07-29T04:05:56;4.87;;;4.53;;
568;SDS011;269;48.884;9.192;2023-07-29T04:08:23;4.60;;;4.20;;
568;SDS011;269;48.884;9.192;2023-07-29T04:10:50;7.10;;;4.70;;
568;SDS011;269;48.884;9.192;2023-07-29T04:13:18;5.00;;;4.50;;
568;SDS011;269;48.884;9.192;2023-07-29T04:15:45;4.63;;;4.30;;
568;SDS011;269;48.884;9.192;2023-07-29T04:18:12;5.83;;;4.77;;
568;SDS011;269;48.884;9.192;2023-07-29T04:20:39;4.47;;;4.17;;
568;SDS011;269;48.884;9.192;2023-07-29T04:23:06;4.77;;;4.40;;
568;SDS011;269;48.884;9.192;2023-07-29T04:25:33;4.20;;;3.90;;
568;SDS011;269;48.884;9.192;2023-07-29T04:27:59;4.77;;;4.37;;
568;SDS011;269;48.884;9.192;2023-07-29T04:30:30;4.60;;;3.93;;
568;SDS011;269;48.884;9.192;2023-07-29T04:32:56;4.40;;;4.00;;
568;SDS011;269;48.884;9.192;2023-07-29T04:35:23;4.03;;;3.73;;
568;SDS011;269;48.884;9.192;2023-07-29T04:37:51;3.87;;;3.47;;
568;SDS011;269;48.884;9.192;2023-07-29T04:40:18;3.57;;;3.27;;
568;SDS011;269;48.884;9.192;2023-07-29T04:42:45;3.77;;;3.47;;
568;SDS011;269;48.884;9.192;2023-07-29T04:45:12;4.17;;;3.77;;
568;SDS011;269;48.884;9.192;2023-07-29T04:47:40;4.90;;;3.93;;
568;SDS011;269;48.884;9.192;2023-07-29T04:50:07;3.40;;;3.10;;
568;SDS011;269;48.884;9.192;2023-07-29T04:52:34;4.10;;;3.50;;
568;SDS011;269;48.884;9.192;2023-07-29T04:55:03;5.80;;;4.20;;
568;SDS011;269;48.884;9.192;2023-07-29T04:57:30;4.40;;;3.97;;
568;SDS011;269;48.884;9.192;2023-07-29T04:59:58;7.23;;;4.07;;
568;SDS011;269;48.884;9.192;2023-07-29T05:02:24;4.80;;;4.03;;
568;SDS011;269;48.884;9.192;2023-07-29T05:04:52;4.93;;;3.73;;
568;SDS011;269;48.884;9.192;2023-07-29T05:07:19;4.13;;;3.80;;
568;SDS011;269;48.884;9.192;2023-07-29T05:09:46;3.77;;;3.47;;
568;SDS011;269;48.884;9.192;2023-07-29T05:12:13;5.50;;;4.50;;
568;SDS011;269;48.884;9.192;2023-07-29T05:14:40;4.77;;;4.37;;
568;SDS011;269;48.884;9.192;2023-07-29T05:17:07;4.60;;;4.30;;
568;SDS011;269;48.884;9.192;2023-07-29T05:19:34;4.30;;;4.00;;
568;SDS011;269;48.884;9.192;2023-07-29T05:22:02;4.50;;;4.20;;
568;SDS011;269;48.884;9.192;2023-07-29T05:24:29;4.87;;;4.47;;
568;SDS011;269;48.884;9.192;2023-07-29T05:26:56;5.60;;;5.07;;
568;SDS011;269;48.884;9.192;2023-07-29T05:29:22;6.77;;;4.73;;
568;SDS011;269;48.884;9.192;2023-07-29T05:31:49;5.40;;;4.90;;
568;SDS011;269;48.884;9.192;2023-07-29T05:34:17;4.50;;;4.20;;
568;SDS011;269;48.884;9.192;2023-07-29T05:36:44;4.10;;;3.80;;
568;SDS011;269;48.884;9.192;2023-07-29T05:39:12;4.63;;;4.20;;
568;SDS011;269;48.884;9.192;2023-07-29T05:41:39;4.50;;;4.13;;
568;SDS011;269;48.884;9.192;2023-07-29T05:44:06;4.70;;;4.30;;
568;SDS011;269;48.884;9.192;2023-07-29T05:46:33;5.07;;;4.30;;
568;SDS011;269;48.884;9.192;2023-07-29T05:49:00;5.30;;;4.83;;
568;SDS011;269;48.884;9.192;2023-07-29T05:51:27;6.13;;;4.33;;
568;SDS011;269;48.884;9.192;2023-07-29T05:53:53;4.47;;;4.07;;
568;SDS011;269;48.884;9.192;2023-07-29T05:56:21;3.80;;;3.50;;
568;SDS011;269;48.884;9.192;2023-07-29T05:58:48;4.17;;;3.87;;
568;SDS011;269;48.884;9.192;2023-07-29T06:01:15;3.93;;;3.63;;
568;SDS011;269;48.884;9.192;2023-07-29T06:03:42;4.20;;;3.60;;
568;SDS011;269;48.884;9.192;2023-07-29T06:06:09;4.60;;;4.20;;
568;SDS011;269;48.884;9.192;2023-07-29T06:08:35;4.00;;;3.70;;
568;SDS011;269;48.884;9.192;2023-07-29T06:11:02;4.20;;;3.90;;
568;SDS011;269;48.884;9.192;2023-07-29T06:13:33;4.03;;;3.63;;
568;SDS011;269;48.884;9.192;2023-07-29T06:15:59;4.00;;;3.60;;
568;SDS011;269;48.884;9.192;2023-07-29T06:18:25;5.57;;;3.83;;
568;SDS011;269;48.884;9.192;2023-07-29T06:20:52;4.00;;;3.70;;
568;SDS011;269;48.884;9.192;2023-07-29T06:23:19;3.27;;;3.07;;
568;SDS011;269;48.884;9.192;2023-07-29T06:25:45;4.07;;;3.67;;
568;SDS011;269;48.884;9.192;2023-07-29T06:28:12;3.47;;;3.17;;
568;SDS011;269;48.884;9.192;2023-07-29T06:30:40;3.93;;;3.63;;
568;SDS011;269;48.884;9.192;2023-07-29T06:33:07;3.77;;;3.47;;
568;SDS011;269;48.884;9.192;2023-07-29T06:35:35;3.80;;;3.50;;
568;SDS011;269;48.884;9.192;2023-07-29T06:38:01;3.87;;;3.10;;
568;SDS011;269;48.884;9.192;2023-07-29T06:40:28;3.40;;;3.07;;
568;SDS011;269;48.884;9.192;2023-07-29T06:42:55;3.53;;;3.23;;
568;SDS011;269;48.884;9.192;2023-07-29T06:45:22;5.10;;;3.40;;
568;SDS011;269;48.884;9.192;2023-07-29T06:47:50;3.80;;;3.13;;
568;SDS011;269;48.884;9.192;2023-07-29T06:50:17;3.73;;;3.43;;
568;SDS011;269;48.884;9.192;2023-07-29T06:52:44;3.13;;;2.90;;
568;SDS011;269;48.884;9.192;2023-07-29T06:55:11;4.13;;;3.80;;
568;SDS011;269;48.884;9.192;2023-07-29T06:57:38;4.03;;;3.73;;
568;SDS011;269;48.884;9.192;2023-07-29T07:00:05;4.50;;;3.33;;
568;SDS011;269;48.884;9.192;2023-07-29T07:02:34;4.00;;;3.23;;
568;SDS011;269;48.884;9.192;2023-07-29T07:05:02;4.20;;;3.80;;
568;SDS011;269;48.884;9.192;2023-07-29T07:07:29;3.80;;;3.50;;
568;SDS011;269;48.884;9.192;2023-07-29T07:09:56;4.67;;;4.27;;
568;SDS011;269;48.884;9.192;2023-07-29T07:12:23;3.40;;;3.20;;
568;SDS011;269;48.884;9.192;2023-07-29T07:14:50;5.50;;;3.80;;
568;SDS011;269;48.884;9.192;2023-07-29T07:17:16;4.37;;;3.80;;
568;SDS011;269;48.884;9.192;2023-07-29T07:19:44;5.40;;;4.03;;
568;SDS011;269;48.884;9.192;2023-07-29T07:22:13;4.00;;;3.67;;
568;SDS011;269;48.884;9.192;2023-07-29T07:24:39;4.10;;;3.80;;
568;SDS011;269;48.884;9.192;2023-07-29T07:27:06;4.33;;;3.97;;
568;SDS011;269;48.884;9.192;2023-07-29T07:29:33;3.80;;;3.50;;
568;SDS011;269;48.884;9.192;2023-07-29T07:32:00;4.63;;;4.20;;
568;SDS011;269;48.884;9.192;2023-07-29T07:34:26;3.83;;;3.53;;
568;SDS011;269;48.884;9.192;2023-07-29T07:36:54;4.40;;;4.00;;
568;SDS011;269;48.884;9.192;2023-07-29T07:39:22;3.97;;;3.60;;
568;SDS011;269;48.884;9.192;2023-07-29T07:41:49;3.77;;;3.37;;
568;SDS011;269;48.884;9.192;2023-07-29T07:44:15;3.90;;;3.50;;
568;SDS011;269;48.884;9.192;2023-07-29T07:46:43;3.47;;;3.17;;
568;SDS011;269;48.884;9.192;2023-07-29T07:49:10;4.43;;;3.70;;
568;SDS011;269;48.884;9.192;2023-07-29T07:51:38;2.70;;;2.60;;
568;SDS011;269;48.884;9.192;2023-07-29T07:54:04;3.17;;;2.87;;
568;SDS011;269;48.884;9.192;2023-07-29T07:56:33;2.90;;;2.50;;
568;SDS011;269;48.884;9.192;2023-07-29T07:58:59;2.90;;;2.70;;
568;SDS011;269;48.884;9.192;2023-07-29T08:01:26;2.50;;;2.30;;
568;SDS011;269;48.884;9.192;2023-07-29T08:03:53;1.60;;;1.50;;
568;SDS011;269;48.884;9.192;2023-07-29T08:06:22;2.17;;;1.90;;
568;SDS011;269;48.884;9.192;2023-07-29T08:08:49;2.50;;;2.30;;
568;SDS011;269;48.884;9.192;2023-07-29T08:11:15;2.00;;;1.80;;
568;SDS011;269;48.884;9.192;2023-07-29T08:13:43;3.23;;;1.93;;
568;SDS011;269;48.884;9.192;2023-07-29T08:16:10;2.23;;;2.10;;
568;SDS011;269;48.884;9.192;2023-07-29T08:18:37;3.77;;;2.53;;
568;SDS011;269;48.884;9.192;2023-07-29T08:21:04;3.00;;;2.80;;
568;SDS011;269;48.884;9.192;2023-07-29T08:23:31;2.70;;;2.50;;
568;SDS011;269;48.884;9.192;2023-07-29T08:26:00;2.03;;;1.93;;
568;SDS011;269;48.884;9.192;2023-07-29T08:28:27;3.83;;;1.77;;
568;SDS011;269;48.884;9.192;2023-07-29T08:30:56;1.73;;;1.60;;
568;SDS011;269;48.884;9.192;2023-07-29T08:33:23;2.13;;;1.97;;
568;SDS011;269;48.884;9.192;2023-07-29T08:35:50;2.03;;;1.50;;
568;SDS011;269;48.884;9.192;2023-07-29T08:38:17;2.03;;;1.83;;
568;SDS011;269;48.884;9.192;2023-07-29T08:40:45;1.47;;;1.30;;
568;SDS011;269;48.884;9.192;2023-07-29T08:43:13;1.83;;;1.40;;
568;SDS011;269;48.884;9.192;2023-07-29T08:45:41;1.43;;;1.30;;
568;SDS011;269;48.884;9.192;2023-07-29T08:48:10;1.50;;;1.40;;
568;SDS011;269;48.884;9.192;2023-07-29T08:50:37;2.30;;;2.07;;
568;SDS011;269;48.884;9.192;2023-07-29T08:53:04;1.60;;;1.27;;
568;SDS011;269;48.884;9.192;2023-07-29T08:55:31;2.07;;;1.40;;
568;SDS011;269;48.884;9.192;2023-07-29T08:57:59;1.40;;;1.30;;
568;SDS011;269;48.884;9.192;2023-07-29T09:00:26;1.30;;;1.20;;
568;SDS011;269;48.884;9.192;2023-07-29T09:02:54;1.50;;;1.40;;
568;SDS011;269;48.884;9.192;2023-07-29T09:05:24;1.30;;;1.20;;
568;SDS011;269;48.884;9.192;2023-07-29T09:07:50;1.17;;;1.07;;
568;SDS011;269;48.884;9.192;2023-07-29T09:10:20;1.77;;;1.67;;
568;SDS011;269;48.884;9.192;2023-07-29T09:12:48;1.70;;;1.40;;
568;SDS011;269;48.884;9.192;2023-07-29T09:15:21;1.43;;;1.33;;
568;SDS011;269;48.884;9.192;2023-07-29T09:17:53;1.40;;;1.30;;
568;SDS011;269;48.884;9.192;2023-07-29T09:20:25;2.00;;;1.30;;
568;SDS011;269;48.884;9.192;2023-07-29T09:22:52;2.30;;;1.50;;
568;SDS011;269;48.884;9.192;2023-07-29T09:25:23;2.77;;;1.40;;
568;SDS011;269;48.884;9.192;2023-07-29T09:27:50;2.07;;;1.50;;
568;SDS011;269;48.884;9.192;2023-07-29T09:30:17;1.43;;;1.33;;
568;SDS011;269;48.884;9.192;2023-07-29T09:32:44;1.30;;;1.20;;
568;SDS011;269;48.884;9.192;2023-07-29T09:35:11;1.23;;;1.13;;
568;SDS011;269;48.884;9.192;2023-07-29T09:37:39;1.47;;;1.37;;
568;SDS011;269;48.884;9.192;2023-07-29T09:40:07;1.20;;;1.10;;
568;SDS011;269;48.884;9.192;2023-07-29T09:42:40;1.50;;;1.40;;
568;SDS011;269;48.884;9.192;2023-07-29T09:45:07;1.50;;;1.40;;
568;SDS011;269;48.884;9.192;2023-07-29T09:47:35;1.40;;;1.30;;
568;SDS011;269;48.884;9.192;2023-07-29T09:50:01;1.40;;;1.30;;
568;SDS011;269;48.884;9.192;2023-07-29T09:52:28;1.43;;;1.30;;
568;SDS011;269;48.884;9.192;2023-07-29T09:54:56;1.90;;;1.60;;
568;SDS011;269;48.884;9.192;2023-07-29T09:57:23;1.40;;;1.30;;
568;SDS011;269;48.884;9.192;2023-07-29T09:59:53;2.17;;;1.50;;
568;SDS011;269;48.884;9.192;2023-07-29T10:02:20;2.50;;;1.30;;
568;SDS011;269;48.884;9.192;2023-07-29T10:04:47;1.80;;;1.70;;
568;SDS011;269;48.884;9.192;2023-07-29T10:07:14;2.70;;;2.20;;
568;SDS011;269;48.884;9.192;2023-07-29T10:09:42;2.63;;;2.03;;
568;SDS011;269;48.884;9.192;2023-07-29T10:12:11;3.20;;;2.00;;
568;SDS011;269;48.884;9.192;2023-07-29T10:14:38;2.67;;;2.47;;
568;SDS011;269;48.884;9.192;2023-07-29T10:17:05;3.87;;;2.57;;
568;SDS011;269;48.884;9.192;2023-07-29T10:19:32;2.50;;;2.10;;
568;SDS011;269;48.884;9.192;2023-07-29T10:22:01;1.90;;;1.80;;
568;SDS011;269;48.884;9.192;2023-07-29T10:24:30;1.90;;;1.70;;
568;SDS011;269;48.884;9.192;2023-07-29T10:26:59;1.60;;;1.50;;
568;SDS011;269;48.884;9.192;2023-07-29T10:29:31;2.20;;;2.10;;
568;SDS011;269;48.884;9.192;2023-07-29T10:31:58;2.10;;;1.60;;
568;SDS011;269;48.884;9.192;2023-07-29T10:34:29;5.33;;;2.27;;
568;SDS011;269;48.884;9.192;2023-07-29T10:36:56;2.40;;;2.10;;
568;SDS011;269;48.884;9.192;2023-07-29T10:39:24;1.60;;;1.50;;
568;SDS011;269;48.884;9.192;2023-07-29T10:41:54;1.30;;;1.20;;
568;SDS011;269;48.884;9.192;2023-07-29T10:47:16;2.10;;;1.37;;
568;SDS011;269;48.884;9.192;2023-07-29T10:49:44;2.80;;;1.50;;
568;SDS011;269;48.884;9.192;2023-07-29T10:52:12;0.90;;;0.90;;
568;SDS011;269;48.884;9.192;2023-07-29T10:54:43;1.30;;;0.97;;
568;SDS011;269;48.884;9.192;2023-07-29T10:57:13;2.40;;;1.27;;
568;SDS011;269;48.884;9.192;2023-07-29T10:59:41;1.00;;;1.00;;
568;SDS011;269;48.884;9.192;2023-07-29T11:02:21;1.27;;;1.17;;
568;SDS011;269;48.884;9.192;2023-07-29T11:04:55;1.67;;;1.33;;
568;SDS011;269;48.884;9.192;2023-07-29T11:07:23;1.80;;;1.53;;
568;SDS011;269;48.884;9.192;2023-07-29T11:09:53;1.40;;;1.30;;
568;SDS011;269;48.884;9.192;2023-07-29T11:12:38;1.43;;;1.33;;
568;SDS011;269;48.884;9.192;2023-07-29T11:15:19;1.20;;;1.10;;
568;SDS011;269;48.884;9.192;2023-07-29T11:17:48;1.20;;;1.00;;
568;SDS011;269;48.884;9.192;2023-07-29T11:20:16;1.10;;;0.90;;
568;SDS011;269;48.884;9.192;2023-07-29T11:22:43;1.43;;;0.97;;
568;SDS011;269;48.884;9.192;2023-07-29T11:25:10;1.23;;;1.00;;
568;SDS011;269;48.884;9.192;2023-07-29T11:27:38;1.20;;;1.00;;
568;SDS011;269;48.884;9.192;2023-07-29T11:30:05;1.10;;;1.00;;
568;SDS011;269;48.884;9.192;2023-07-29T11:32:36;1.53;;;0.80;;
568;SDS011;269;48.884;9.192;2023-07-29T11:35:04;1.00;;;1.00;;
568;SDS011;269;48.884;9.192;2023-07-29T11:37:32;1.10;;;1.00;;
568;SDS011;269;48.884;9.192;2023-07-29T11:40:00;1.10;;;1.00;;
568;SDS011;269;48.884;9.192;2023-07-29T11:42:27;1.30;;;1.20;;
568;SDS011;269;48.884;9.192;2023-07-29T11:44:55;1.90;;;1.20;;
568;SDS011;269;48.884;9.192;2023-07-29T11:47:23;1.10;;;1.00;;
568;SDS011;269;48.884;9.192;2023-07-29T11:49:51;1.40;;;1.10;;
568;SDS011;269;48.884;9.192;2023-07-29T11:52:18;1.20;;;1.10;;
568;SDS011;269;48.884;9.192;2023-07-29T11:54:46;1.30;;;1.20;;
568;SDS011;269;48.884;9.192;2023-07-29T11:57:14;1.30;;;1.20;;
568;SDS011;269;48.884;9.192;2023-07-29T11:59:42;1.87;;;1.20;;
568;SDS011;269;48.884;9.192;2023-07-29T12:02:09;1.40;;;1.30;;
568;SDS011;269;48.884;9.192;2023-07-29T12:04:38;1.40;;;1.30;;
568;SDS011;269;48.884;9.192;2023-07-29T12:07:07;1.27;;;1.17;;
568;SDS011;269;48.884;9.192;2023-07-29T12:09:34;1.57;;;1.20;;
568;SDS011;269;48.884;9.192;2023-07-29T12:12:01;1.77;;;1.30;;
568;SDS011;269;48.884;9.192;2023-07-29T12:14:28;1.50;;;1.40;;
568;SDS011;269;48.884;9.192;2023-07-29T12:16:55;1.50;;;1.40;;
568;SDS011;269;48.884;9.192;2023-07-29T12:19:22;1.80;;;1.70;;
568;SDS011;269;48.884;9.192;2023-07-29T12:21:50;1.43;;;1.33;;
568;SDS011;269;48.884;9.192;2023-07-29T12:24:18;1.50;;;1.40;;
568;SDS011;269;48.884;9.192;2023-07-29T12:26:46;1.60;;;1.47;;
568;SDS011;269;48.884;9.192;2023-07-29T12:29:13;1.67;;;1.57;;
568;SDS011;269;48.884;9.192;2023-07-29T12:31:41;2.00;;;1.60;;
568;SDS011;269;48.884;9.192;2023-07-29T12:34:08;1.70;;;1.60;;
568;SDS011;269;48.884;9.192;2023-07-29T12:36:44;2.83;;;1.70;;
568;SDS011;269;48.884;9.192;2023-07-29T12:39:20;1.60;;;1.50;;
568;SDS011;269;48.884;9.192;2023-07-29T12:41:47;1.83;;;1.73;;
568;SDS011;269;48.884;9.192;2023-07-29T12:44:15;1.47;;;1.30;;
568;SDS011;269;48.884;9.192;2023-07-29T12:46:42;1.30;;;1.20;;
568;SDS011;269;48.884;9.192;2023-07-29T12:49:09;1.73;;;1.63;;
568;SDS011;269;48.884;9.192;2023-07-29T12:51:36;1.60;;;1.50;;
568;SDS011;269;48.884;9.192;2023-07-29T12:54:03;1.77;;;1.47;;
568;SDS011;269;48.884;9.192;2023-07-29T12:56:32;1.47;;;1.37;;
568;SDS011;269;48.884;9.192;2023-07-29T12:58:59;2.07;;;1.87;;
568;SDS011;269;48.884;9.192;2023-07-29T13:01:26;1.80;;;1.70;;
568;SDS011;269;48.884;9.192;2023-07-29T13:03:53;1.80;;;1.70;;
568;SDS011;269;48.884;9.192;2023-07-29T13:06:21;1.70;;;1.60;;
568;SDS011;269;48.884;9.192;2023-07-29T13:08:48;1.90;;;1.80;;
568;SDS011;269;48.884;9.192;2023-07-29T13:11:15;2.30;;;1.67;;
568;SDS011;269;48.884;9.192;2023-07-29T13:13:44;2.77;;;1.67;;
568;SDS011;269;48.884;9.192;2023-07-29T13:16:11;1.50;;;1.40;;
568;SDS011;269;48.884;9.192;2023-07-29T13:18:38;1.60;;;1.50;;
568;SDS011;269;48.884;9.192;2023-07-29T13:21:05;1.70;;;1.60;;
568;SDS011;269;48.884;9.192;2023-07-29T13:23:31;2.10;;;1.90;;
568;SDS011;269;48.884;9.192;2023-07-29T13:25:58;1.80;;;1.70;;
568;SDS011;269;48.884;9.192;2023-07-29T13:28:25;1.70;;;1.60;;
568;SDS011;269;48.884;9.192;2023-07-29T13:30:53;1.90;;;1.70;;
568;SDS011;269;48.884;9.192;2023-07-29T13:33:20;1.63;;;1.53;;
568;SDS011;269;48.884;9.192;2023-07-29T13:35:47;1.80;;;1.50;;
568;SDS011;269;48.884;9.192;2023-07-29T13:38:13;1.70;;;1.60;;
568;SDS011;269;48.884;9.192;2023-07-29T13:40:40;1.83;;;1.60;;
568;SDS011;269;48.884;9.192;2023-07-29T13:43:07;2.17;;;1.87;;
568;SDS011;269;48.884;9.192;2023-07-29T13:45:34;1.87;;;1.77;;
568;SDS011;269;48.884;9.192;2023-07-29T13:48:02;3.07;;;1.50;;
568;SDS011;269;48.884;9.192;2023-07-29T13:50:29;2.50;;;1.70;;
568;SDS011;269;48.884;9.192;2023-07-29T13:52:56;2.40;;;1.60;;
568;SDS011;269;48.884;9.192;2023-07-29T13:55:23;1.77;;;1.67;;
568;SDS011;269;48.884;9.192;2023-07-29T13:57:50;1.73;;;1.63;;
568;SDS011;269;48.884;9.192;2023-07-29T14:00:17;2.20;;;1.70;;
568;SDS011;269;48.884;9.192;2023-07-29T14:02:43;1.70;;;1.60;;
568;SDS011;269;48.884;9.192;2023-07-29T14:05:12;1.50;;;1.40;;
568;SDS011;269;48.884;9.192;2023-07-29T14:07:39;1.70;;;1.60;;
568;SDS011;269;48.884;9.192;2023-07-29T14:10:06;1.90;;;1.80;;
568;SDS011;269;48.884;9.192;2023-07-29T14:12:33;1.50;;;1.40;;
568;SDS011;269;48.884;9.192;2023-07-29T14:15:00;1.83;;;1.50;;
568;SDS011;269;48.884;9.192;2023-07-29T14:17:27;1.80;;;1.57;;
568;SDS011;269;48.884;9.192;2023-07-29T14:19:54;1.67;;;1.57;;
568;SDS011;269;48.884;9.192;2023-07-29T14:22:22;1.57;;;1.47;;
568;SDS011;269;48.884;9.192;2023-07-29T14:24:48;1.60;;;1.50;;
568;SDS011;269;48.884;9.192;2023-07-29T14:27:15;2.17;;;1.97;;
568;SDS011;269;48.884;9.192;2023-07-29T14:29:42;1.50;;;1.40;;
568;SDS011;269;48.884;9.192;2023-07-29T14:32:09;1.50;;;1.30;;
568;SDS011;269;48.884;9.192;2023-07-29T14:34:36;1.63;;;1.53;;
568;SDS011;269;48.884;9.192;2023-07-29T14:37:04;1.77;;;1.50;;
568;SDS011;269;48.884;9.192;2023-07-29T14:39:32;2.13;;;2.00;;
568;SDS011;269;48.884;9.192;2023-07-29T14:41:59;1.77;;;1.67;;
568;SDS011;269;48.884;9.192;2023-07-29T14:44:26;1.80;;;1.63;;
568;SDS011;269;48.884;9.192;2023-07-29T14:46:53;1.90;;;1.80;;
568;SDS011;269;48.884;9.192;2023-07-29T14:49:20;1.90;;;1.80;;
568;SDS011;269;48.884;9.192;2023-07-29T14:51:47;2.90;;;1.67;;
568;SDS011;269;48.884;9.192;2023-07-29T14:54:14;1.77;;;1.67;;
568;SDS011;269;48.884;9.192;2023-07-29T14:56:42;1.93;;;1.70;;
568;SDS011;269;48.884;9.192;2023-07-29T14:59:09;1.60;;;1.50;;
568;SDS011;269;48.884;9.192;2023-07-29T15:01:36;2.80;;;1.87;;
568;SDS011;269;48.884;9.192;2023-07-29T15:04:03;1.93;;;1.80;;
568;SDS011;269;48.884;9.192;2023-07-29T15:06:30;2.10;;;1.90;;
568;SDS011;269;48.884;9.192;2023-07-29T15:08:57;1.80;;;1.70;;
568;SDS011;269;48.884;9.192;2023-07-29T15:11:25;1.80;;;1.70;;
568;SDS011;269;48.884;9.192;2023-07-29T15:13:53;2.10;;;1.90;;
568;SDS011;269;48.884;9.192;2023-07-29T15:16:22;1.70;;;1.60;;
568;SDS011;269;48.884;9.192;2023-07-29T15:18:50;2.00;;;1.80;;
568;SDS011;269;48.884;9.192;2023-07-29T15:21:16;3.30;;;2.90;;
568;SDS011;269;48.884;9.192;2023-07-29T15:23:43;1.67;;;1.57;;
568;SDS011;269;48.884;9.192;2023-07-29T15:26:11;1.60;;;1.50;;
568;SDS011;269;48.884;9.192;2023-07-29T15:28:38;2.17;;;1.87;;
568;SDS011;269;48.884;9.192;2023-07-29T15:31:06;1.90;;;1.80;;
568;SDS011;269;48.884;9.192;2023-07-29T15:33:34;1.87;;;1.77;;
568;SDS011;269;48.884;9.192;2023-07-29T15:36:03;2.10;;;2.00;;
568;SDS011;269;48.884;9.192;2023-07-29T15:38:30;2.07;;;1.97;;
568;SDS011;269;48.884;9.192;2023-07-29T15:40:57;2.83;;;1.80;;
568;SDS011;269;48.884;9.192;2023-07-29T15:43:24;1.80;;;1.70;;
568;SDS011;269;48.884;9.192;2023-07-29T15:45:50;2.13;;;1.93;;
568;SDS011;269;48.884;9.192;2023-07-29T15:48:19;1.97;;;1.87;;
568;SDS011;269;48.884;9.192;2023-07-29T15:50:46;2.10;;;1.90;;
568;SDS011;269;48.884;9.192;2023-07-29T15:53:13;2.63;;;2.00;;